Time;durP1;ratioP1;P1;durP2;ratioP2;P2;SDS_P1;SDS_P2;PMS_P1;PMS_P2;Temp;Humidity;BMP_temperature;BMP_pressure;BME280_temperature;BME280_humidity;BME280_pressure;Samples;Min_cycle;Max_cycle;Signal;HPM_P1;HPM_P2
2023/02/27 00:02:18;;;;;;;22.25;4.53;;;;;;;14.76;56.95;98750.34;4909508;29;20070;-93
2023/02/27 00:04:44;;;;;;;12.13;4.32;;;;;;;14.78;56.69;98742.72;4909484;29;20031;-94
2023/02/27 00:07:09;;;;;;;13.15;3.65;;;;;;;14.78;56.79;98734.59;4909503;29;20031;-93
2023/02/27 00:09:35;;;;;;;17.88;4.35;;;;;;;14.66;56.97;98727.03;4909335;29;20417;-93
2023/02/27 00:12:01;;;;;;;8.68;3.58;;;;;;;14.80;57.05;98739.72;4925157;29;20062;-94
2023/02/27 00:14:27;;;;;;;10.40;4.20;;;;;;;14.74;56.91;98722.78;4925239;29;20030;-93
2023/02/27 00:16:52;;;;;;;13.73;3.92;;;;;;;14.85;56.84;98737.63;4925284;29;20027;-94
2023/02/27 00:19:18;;;;;;;12.88;3.90;;;;;;;14.77;57.00;98729.47;4924821;29;20568;-93
2023/02/27 00:21:43;;;;;;;16.15;3.70;;;;;;;14.81;56.77;98723.09;4908990;29;20125;-93
2023/02/27 00:24:10;;;;;;;20.58;5.13;;;;;;;14.84;57.07;98725.22;4909071;29;20035;-94
2023/02/27 00:26:36;;;;;;;14.00;5.05;;;;;;;14.79;56.79;98716.41;4908761;29;20054;-93
2023/02/27 00:29:02;;;;;;;17.63;4.72;;;;;;;14.89;56.89;98716.13;4909287;29;20067;-94
2023/02/27 00:31:28;;;;;;;23.15;6.20;;;;;;;14.87;56.88;98713.72;4908959;29;20031;-94
2023/02/27 00:33:54;;;;;;;17.80;4.65;;;;;;;14.94;56.79;98716.81;4908995;29;20382;-94
2023/02/27 00:36:19;;;;;;;13.65;4.03;;;;;;;14.92;56.65;98701.94;4909091;29;20027;-94
2023/02/27 00:38:45;;;;;;;11.60;4.03;;;;;;;14.83;56.96;98703.84;4908411;29;20054;-93
2023/02/27 00:41:10;;;;;;;9.43;3.70;;;;;;;14.99;56.72;98713.16;4909222;29;20031;-93
2023/02/27 00:43:36;;;;;;;8.93;3.40;;;;;;;14.91;56.72;98695.72;4908749;29;20501;-93
2023/02/27 00:46:02;;;;;;;14.52;3.88;;;;;;;15.00;56.43;98703.88;4908721;29;20051;-94
2023/02/27 00:48:27;;;;;;;13.82;3.95;;;;;;;14.94;56.93;98703.25;4908276;29;20027;-93
2023/02/27 00:50:53;;;;;;;12.40;3.67;;;;;;;14.86;56.75;98693.16;4909235;29;20058;-94
2023/02/27 00:53:18;;;;;;;13.93;3.97;;;;;;;14.90;56.66;98685.19;4908626;29;20475;-93
2023/02/27 00:55:44;;;;;;;12.77;4.18;;;;;;;15.01;56.64;98688.44;4908731;29;20485;-94
2023/02/27 00:58:09;;;;;;;12.90;4.05;;;;;;;14.98;56.94;98694.47;4908417;29;20387;-94
2023/02/27 01:00:35;;;;;;;12.77;4.15;;;;;;;14.98;56.52;98670.88;4908603;29;20055;-93
2023/02/27 01:03:00;;;;;;;10.35;4.07;;;;;;;14.92;56.75;98664.00;4908183;29;20038;-93
2023/02/27 01:05:26;;;;;;;12.45;4.80;;;;;;;15.02;56.19;98671.03;4908305;29;20038;-94
2023/02/27 01:07:52;;;;;;;15.55;4.10;;;;;;;14.93;56.39;98679.94;4908217;29;20023;-93
2023/02/27 01:10:18;;;;;;;15.68;4.15;;;;;;;14.82;56.79;98677.84;4908410;29;20470;-94
2023/02/27 01:12:44;;;;;;;13.43;3.85;;;;;;;15.03;56.55;98686.22;4908359;29;20122;-93
2023/02/27 01:15:10;;;;;;;13.18;4.30;;;;;;;14.88;56.67;98692.84;4907837;29;20426;-93
2023/02/27 01:17:35;;;;;;;20.02;4.13;;;;;;;14.79;56.75;98673.84;4907985;29;20094;-94
2023/02/27 01:20:01;;;;;;;13.15;3.83;;;;;;;14.90;56.79;98696.03;4909546;29;20027;-93
2023/02/27 01:22:27;;;;;;;10.52;3.35;;;;;;;14.95;56.73;98693.19;4923893;29;20556;-93
2023/02/27 01:24:52;;;;;;;17.65;3.92;;;;;;;14.92;56.84;98696.53;4907718;29;20073;-93
2023/02/27 01:27:18;;;;;;;12.05;4.18;;;;;;;14.93;56.64;98703.56;4907433;29;20027;-93
2023/02/27 01:29:43;;;;;;;13.27;4.18;;;;;;;14.80;57.13;98693.63;4907859;29;20027;-93
2023/02/27 01:32:09;;;;;;;12.40;4.20;;;;;;;14.73;57.27;98683.22;4907703;29;20111;-94
2023/02/27 01:34:34;;;;;;;14.57;4.43;;;;;;;14.73;57.45;98703.00;4907739;29;20457;-93
2023/02/27 01:37:00;;;;;;;14.23;4.03;;;;;;;14.74;57.21;98691.03;4907387;29;20019;-93
2023/02/27 01:39:25;;;;;;;12.48;4.47;;;;;;;14.73;57.36;98699.47;4907272;29;20019;-93
2023/02/27 01:41:51;;;;;;;18.45;4.03;;;;;;;14.61;57.27;98686.53;4908023;29;20058;-93
2023/02/27 01:44:17;;;;;;;10.45;3.67;;;;;;;14.49;57.57;98692.50;4923641;29;20037;-93
2023/02/27 01:46:42;;;;;;;8.75;3.15;;;;;;;14.47;57.74;98693.91;4907317;29;20046;-93
2023/02/27 01:49:28;;;;;;;12.05;3.45;;;;;;;14.61;57.90;98713.63;4907553;29;20027;-93
2023/02/27 01:52:06;;;;;;;10.52;4.22;;;;;;;14.58;57.86;98708.81;4953498;29;20042;-95
2023/02/27 01:54:37;;;;;;;7.15;3.65;;;;;;;14.59;57.96;98721.28;4936040;29;20012;-95
2023/02/27 01:57:14;;;;;;;14.25;3.92;;;;;;;14.54;57.96;98730.28;4935569;29;20027;-96
2023/02/27 02:00:07;;;;;;;11.00;3.47;;;;;;;14.29;58.35;98711.97;4937743;29;20031;-95
2023/02/27 02:02:47;;;;;;;11.35;3.67;;;;;;;14.34;58.23;98715.38;4898744;29;20051;-96
2023/02/27 02:05:33;;;;;;;8.98;3.50;;;;;;;14.35;58.52;98729.69;4882551;29;20534;-95
2023/02/27 02:08:31;;;;;;;10.38;3.95;;;;;;;14.34;57.88;98712.66;4884745;29;20036;-96
2023/02/27 02:11:08;;;;;;;8.90;2.90;;;;;;;14.35;57.98;98714.25;4874199;29;20060;-94
2023/02/27 02:13:39;;;;;;;15.27;3.17;;;;;;;14.46;57.83;98705.84;4859085;29;20036;-95
2023/02/27 02:16:39;;;;;;;9.35;3.33;;;;;;;14.46;58.00;98727.53;4847900;29;20185;-93
2023/02/27 02:19:16;;;;;;;13.45;2.97;;;;;;;14.54;57.72;98727.56;4862550;29;20132;-93
2023/02/27 02:22:00;;;;;;;10.95;3.40;;;;;;;14.57;57.47;98718.06;4863296;29;20037;-93
2023/02/27 02:24:52;;;;;;;10.23;3.53;;;;;;;14.52;57.72;98707.31;4862292;29;20036;-92
2023/02/27 02:27:44;;;;;;;11.95;3.33;;;;;;;14.42;57.93;98713.81;4869888;29;20121;-94
2023/02/27 02:30:30;;;;;;;7.97;2.97;;;;;;;14.37;58.17;98700.41;4863175;29;20071;-92
2023/02/27 02:32:56;;;;;;;11.38;3.58;;;;;;;14.38;58.15;98715.56;4867469;29;20131;-93
2023/02/27 02:35:40;;;;;;;12.45;3.30;;;;;;;14.48;57.83;98719.88;4896598;29;20490;-92
2023/02/27 02:38:05;;;;;;;7.68;3.17;;;;;;;14.48;57.96;98722.59;4896538;29;20089;-93
2023/02/27 02:40:38;;;;;;;9.27;3.17;;;;;;;14.55;57.73;98745.47;4896652;29;20052;-93
2023/02/27 02:43:09;;;;;;;7.80;2.55;;;;;;;14.56;57.49;98743.53;4938321;29;20121;-93
2023/02/27 02:45:56;;;;;;;7.05;2.83;;;;;;;14.57;57.38;98738.91;4938681;29;20138;-93
2023/02/27 02:48:32;;;;;;;20.63;3.33;;;;;;;14.65;57.46;98755.25;4924149;29;20033;-93
2023/02/27 02:51:07;;;;;;;7.75;2.72;;;;;;;14.63;57.73;98760.19;4942599;29;20038;-92
2023/02/27 02:53:41;;;;;;;8.20;2.55;;;;;;;14.60;58.12;98763.50;4927114;29;20031;-92
2023/02/27 02:56:31;;;;;;;6.50;2.28;;;;;;;14.59;58.15;98769.22;4941945;29;20383;-93
2023/02/27 02:58:59;;;;;;;12.40;3.00;;;;;;;14.63;57.86;98767.50;4925703;29;20387;-93
2023/02/27 03:01:35;;;;;;;12.77;2.80;;;;;;;14.61;57.82;98748.84;4942162;29;20023;-92
2023/02/27 03:07:28;;;;;;;8.85;2.90;;;;;;;14.40;59.11;98740.41;4958969;29;20039;-93
2023/02/27 03:10:15;;;;;;;12.60;3.38;;;;;;;14.30;59.09;98729.84;4941538;29;20034;-93
2023/02/27 03:12:43;;;;;;;10.35;3.50;;;;;;;14.41;58.95;98741.22;4926105;29;20035;-93
2023/02/27 03:15:17;;;;;;;7.70;2.92;;;;;;;14.31;59.09;98726.78;4926452;29;20107;-93
2023/02/27 03:17:45;;;;;;;18.63;3.60;;;;;;;14.45;58.96;98732.16;4926483;29;20478;-93
2023/02/27 03:20:15;;;;;;;11.35;3.63;;;;;;;14.38;58.94;98717.44;4942025;29;20023;-93
2023/02/27 03:22:42;;;;;;;13.90;4.10;;;;;;;14.34;59.29;98699.13;4926195;29;20027;-93
2023/02/27 03:25:09;;;;;;;9.68;3.53;;;;;;;14.37;59.18;98703.09;4925553;29;20047;-93
2023/02/27 03:27:37;;;;;;;14.23;4.22;;;;;;;14.37;59.12;98691.47;4926189;29;20086;-92
2023/02/27 03:30:08;;;;;;;13.32;3.80;;;;;;;14.38;58.93;98701.19;4910186;29;20023;-93
2023/02/27 03:32:35;;;;;;;10.32;3.55;;;;;;;14.38;58.83;98710.13;4925879;29;20070;-92
2023/02/27 03:35:01;;;;;;;9.20;3.30;;;;;;;14.39;58.85;98721.75;4925401;29;20114;-93
2023/02/27 03:37:33;;;;;;;15.05;3.63;;;;;;;14.50;58.94;98744.75;4925480;29;20110;-93
2023/02/27 03:40:35;;;;;;;11.98;4.35;;;;;;;14.43;59.09;98744.41;4941433;29;20058;-93
2023/02/27 03:43:10;;;;;;;;;;;;;;;14.44;58.91;98754.13;4877280;29;20122;-93
2023/02/27 03:45:53;;;;;;;12.98;3.65;;;;;;;14.31;59.12;98753.09;4942287;29;20369;-92
2023/02/27 03:48:18;;;;;;;15.98;3.83;;;;;;;14.39;59.21;98752.34;4927782;29;20094;-94
2023/02/27 03:50:47;;;;;;;15.10;3.60;;;;;;;14.28;59.27;98748.31;4910023;29;20035;-93
2023/02/27 03:53:40;;;;;;;14.13;4.50;;;;;;;14.35;59.16;98771.13;4909981;29;20034;-93
2023/02/27 03:56:06;;;;;;;12.90;4.50;;;;;;;14.39;59.19;98774.00;4927936;29;20043;-92
2023/02/27 03:58:32;;;;;;;11.88;3.42;;;;;;;14.33;59.31;98767.91;4909616;29;20030;-93
2023/02/27 04:00:58;;;;;;;8.05;3.78;;;;;;;14.32;59.63;98768.25;4909228;29;20055;-92
2023/02/27 04:03:23;;;;;;;16.00;4.32;;;;;;;14.09;59.92;98762.81;4910342;29;20027;-92
2023/02/27 04:05:49;;;;;;;19.73;4.72;;;;;;;14.30;59.88;98782.09;4909444;29;20027;-92
2023/02/27 04:08:44;;;;;;;13.45;4.78;;;;;;;14.35;59.58;98781.16;4940496;29;20089;-93
2023/02/27 04:12:04;;;;;;;16.15;4.82;;;;;;;14.38;59.24;98785.97;4922658;29;20031;-93
2023/02/27 04:14:34;;;;;;;14.88;4.78;;;;;;;14.30;59.28;98776.66;4861918;29;20102;-92
2023/02/27 04:17:51;;;;;;;15.50;4.00;;;;;;;14.37;59.33;98781.66;4914173;29;20114;-96
2023/02/27 04:20:55;;;;;;;;;;;;;;;;;;;;;
2023/02/27 04:23:33;;;;;;;9.65;4.05;;;;;;;14.29;59.46;98771.53;4935182;29;20065;-94
2023/02/27 04:26:05;;;;;;;17.65;4.50;;;;;;;14.38;59.13;98791.38;4910702;29;20051;-93
2023/02/27 04:28:44;;;;;;;16.02;4.53;;;;;;;14.36;59.08;98807.13;4921320;29;20039;-94
2023/02/27 04:31:14;;;;;;;12.70;4.05;;;;;;;14.36;59.03;98812.56;4892610;29;20036;-93
2023/02/27 04:33:52;;;;;;;13.48;5.13;;;;;;;14.37;58.81;98830.41;4905685;29;20054;-94
2023/02/27 04:36:23;;;;;;;14.05;4.30;;;;;;;14.34;58.75;98831.03;4922099;29;20039;-94
2023/02/27 04:39:01;;;;;;;15.30;3.85;;;;;;;14.27;58.74;98828.72;4905509;29;20110;-94
2023/02/27 04:41:29;;;;;;;18.90;4.22;;;;;;;14.39;58.54;98859.88;4891098;29;20522;-94
2023/02/27 04:43:55;;;;;;;18.17;4.80;;;;;;;14.42;58.69;98878.22;4890702;29;20035;-93
2023/02/27 04:46:23;;;;;;;12.98;4.65;;;;;;;14.38;58.60;98878.06;4891163;29;20027;-93
2023/02/27 04:48:58;;;;;;;14.57;5.07;;;;;;;14.40;58.27;98912.94;4892057;29;20020;-94
2023/02/27 04:51:26;;;;;;;16.55;4.85;;;;;;;13.97;52.50;98967.47;4890414;29;20126;-96
2023/02/27 04:54:11;;;;;;;16.35;6.10;;;;;;;12.13;51.86;99010.50;4891568;29;20053;-93
2023/02/27 04:56:43;;;;;;;12.10;5.53;;;;;;;10.61;54.16;99026.84;4906076;29;20049;-95
2023/02/27 04:59:18;;;;;;;10.00;5.78;;;;;;;10.09;55.32;99086.19;4890779;29;20042;-94
2023/02/27 05:01:47;;;;;;;9.52;5.65;;;;;;;9.71;55.76;99077.63;4890790;29;20038;-94
2023/02/27 05:04:14;;;;;;;10.73;6.28;;;;;;;9.17;57.62;99088.91;4890268;29;20028;-94
2023/02/27 05:06:41;;;;;;;11.07;5.70;;;;;;;8.89;58.96;99084.78;4890397;29;20041;-93
2023/02/27 05:09:34;;;;;;;8.65;5.85;;;;;;;8.77;60.12;99148.63;4894158;29;20051;-94
2023/02/27 05:12:29;;;;;;;11.52;6.45;;;;;;;8.63;60.63;99151.81;4928577;29;20031;-94
2023/02/27 05:15:15;;;;;;;11.02;5.88;;;;;;;8.62;61.14;99155.56;4908103;29;20043;-94
2023/02/27 05:17:51;;;;;;;18.00;6.25;;;;;;;8.50;60.96;99128.13;4892108;29;20047;-94
2023/02/27 05:20:17;;;;;;;11.73;5.32;;;;;;;8.38;60.46;99151.63;4890707;29;20482;-94
2023/02/27 05:22:48;;;;;;;10.48;5.57;;;;;;;8.46;60.30;99172.63;4906354;29;20031;-94
2023/02/27 05:25:47;;;;;;;7.60;4.38;;;;;;;8.44;58.35;99194.34;4905004;29;20054;-95
2023/02/27 05:28:31;;;;;;;7.40;4.80;;;;;;;8.46;58.18;99199.47;4928307;29;20038;-93
2023/02/27 05:31:17;;;;;;;9.40;4.70;;;;;;;8.31;57.96;99167.94;4924459;29;20032;-95
2023/02/27 05:33:50;;;;;;;11.57;4.68;;;;;;;8.29;57.85;99165.53;4947750;29;20026;-96
2023/02/27 05:36:26;;;;;;;10.25;4.80;;;;;;;8.44;58.50;99188.97;4937505;29;20039;-96
2023/02/27 05:39:29;;;;;;;21.15;6.78;;;;;;;8.44;58.13;99204.28;4939496;29;20034;-93
2023/02/27 05:42:01;;;;;;;9.95;5.03;;;;;;;8.74;58.34;99232.41;4947721;29;20043;-95
2023/02/27 05:44:29;;;;;;;12.95;4.90;;;;;;;8.65;59.82;99219.47;4938444;29;20027;-94
2023/02/27 05:47:27;;;;;;;9.60;4.80;;;;;;;8.78;61.30;99231.59;4934120;29;20107;-95
2023/02/27 05:50:07;;;;;;;9.73;4.70;;;;;;;8.96;61.73;99226.84;4946269;29;20027;-94
2023/02/27 05:52:33;;;;;;;9.00;5.10;;;;;;;8.94;62.70;99239.72;4934422;29;20031;-94
2023/02/27 05:55:21;;;;;;;10.75;5.40;;;;;;;8.89;62.97;99229.78;4915906;29;20042;-94
2023/02/27 05:58:58;;;;;;;10.75;5.70;;;;;;;8.76;64.29;99223.00;4924036;29;20126;-96
2023/02/27 06:01:33;;;;;;;9.98;5.47;;;;;;;8.85;64.22;99217.94;4876808;29;20041;-96
2023/02/27 06:04:13;;;;;;;9.88;5.65;;;;;;;8.90;66.05;99252.88;5828091;23;21029;-95
2023/02/27 06:06:40;;;;;;;11.40;5.95;;;;;;;9.06;67.50;99269.88;4922388;29;20058;-95
2023/02/27 06:09:15;;;;;;;17.42;8.35;;;;;;;8.72;70.04;99234.53;4918199;29;20031;-96
2023/02/27 06:11:44;;;;;;;10.63;6.55;;;;;;;8.67;69.73;99227.22;4916697;29;20063;-95
2023/02/27 06:14:13;;;;;;;12.65;6.82;;;;;;;8.94;68.62;99251.28;4915801;29;20043;-94
2023/02/27 06:16:45;;;;;;;14.50;7.20;;;;;;;9.07;71.28;99288.41;4916956;29;20031;-96
2023/02/27 06:19:14;;;;;;;12.75;6.13;;;;;;;9.07;70.03;99306.41;4932302;29;20027;-95
2023/02/27 06:21:42;;;;;;;15.00;7.43;;;;;;;9.09;70.49;99320.41;4914471;29;20031;-95
2023/02/27 06:24:25;;;;;;;15.70;7.18;;;;;;;8.92;71.36;99304.44;4919869;29;20038;-96
2023/02/27 06:26:53;;;;;;;12.63;6.30;;;;;;;8.93;71.20;99321.38;4947159;29;20028;-92
2023/02/27 06:29:19;;;;;;;14.05;7.38;;;;;;;8.86;70.61;99325.09;4915076;29;20031;-95
2023/02/27 06:31:45;;;;;;;12.30;7.78;;;;;;;9.03;70.29;99343.72;4915095;29;20027;-92
2023/02/27 06:34:22;;;;;;;11.38;7.25;;;;;;;8.83;71.58;99325.59;4911937;29;20066;-93
2023/02/27 06:36:49;;;;;;;11.15;6.55;;;;;;;9.04;70.97;99368.69;4917397;29;20027;-94
2023/02/27 06:39:15;;;;;;;14.55;8.32;;;;;;;9.02;70.75;99346.66;4894141;29;20019;-94
2023/02/27 06:41:41;;;;;;;25.30;11.68;;;;;;;9.27;71.00;99364.81;4891696;29;20529;-95
2023/02/27 06:44:07;;;;;;;44.38;19.77;;;;;;;9.36;70.46;99378.56;4893865;29;20031;-95
2023/02/27 06:46:34;;;;;;;107.97;53.17;;;;;;;9.45;68.81;99331.31;4901217;29;20051;-95
2023/02/27 06:49:00;;;;;;;16.98;9.48;;;;;;;9.40;69.23;99352.78;4897061;29;20031;-94
2023/02/27 06:51:34;;;;;;;18.02;7.55;;;;;;;9.50;68.51;99352.84;4897031;29;20032;-95
2023/02/27 06:54:03;;;;;;;16.77;7.28;;;;;;;9.64;68.21;99380.84;4898926;29;20038;-96
2023/02/27 06:56:42;;;;;;;13.70;6.45;;;;;;;9.80;66.26;99378.25;4914521;29;20024;-95
2023/02/27 06:59:10;;;;;;;8.98;5.75;;;;;;;9.62;66.39;99371.44;4898966;29;20047;-93
2023/02/27 07:01:36;;;;;;;12.85;6.82;;;;;;;9.58;66.66;99373.03;4900644;29;20047;-93
2023/02/27 07:04:02;;;;;;;9.90;5.70;;;;;;;9.58;67.22;99351.53;4891808;29;20406;-93
2023/02/27 07:19:39;;;;;;;13.90;6.22;;;;;;;9.34;65.38;99400.34;5340762;23;20095;-94
2023/02/27 07:22:17;;;;;;;12.38;5.68;;;;;;;9.22;65.31;99402.41;4905743;29;20012;-94
2023/02/27 07:24:45;;;;;;;11.48;5.25;;;;;;;9.01;65.88;99388.84;4912787;29;20043;-94
2023/02/27 07:27:48;;;;;;;11.02;5.78;;;;;;;9.13;67.46;99409.31;4899979;29;20015;-96
2023/02/27 07:30:43;;;;;;;11.35;5.88;;;;;;;9.08;66.71;99416.25;4919302;29;20102;-95
2023/02/27 07:33:14;;;;;;;10.20;5.72;;;;;;;9.04;66.44;99406.28;4913056;29;20155;-96
2023/02/27 07:35:40;;;;;;;10.63;5.57;;;;;;;9.29;66.06;99421.78;4900242;29;20028;-96
2023/02/27 07:40:47;;;;;;;8.73;4.97;;;;;;;9.22;65.02;99419.31;5032027;23;20058;-94
2023/02/27 07:43:14;;;;;;;;;;;;;;;9.30;66.51;99447.59;4951772;23;20059;-96
2023/02/27 07:45:40;;;;;;;13.35;5.97;;;;;;;9.17;65.78;99430.06;4950712;29;19964;-96
2023/02/27 07:48:18;;;;;;;12.30;6.90;;;;;;;9.36;68.13;99443.03;4917118;29;20035;-95
2023/02/27 07:50:47;;;;;;;10.23;6.18;;;;;;;9.62;65.65;99462.84;4919024;29;20030;-96
2023/02/27 07:53:13;;;;;;;9.38;5.70;;;;;;;9.65;66.83;99459.63;4918654;29;20125;-96
2023/02/27 07:55:39;;;;;;;7.35;4.63;;;;;;;9.61;65.88;99475.47;4916154;29;20461;-96
2023/02/27 07:58:12;;;;;;;8.07;5.95;;;;;;;9.55;65.15;99473.03;4928304;29;20015;-96
2023/02/27 08:04:15;;;;;;;8.73;5.38;;;;;;;9.64;67.37;99476.84;5247646;23;20046;-96
2023/02/27 08:07:13;;;;;;;;;;;;;;;;;;;;;
2023/02/27 08:09:50;;;;;;;9.45;5.22;;;;;;;10.08;63.65;99498.03;4957814;28;20081;-96
2023/02/27 08:15:04;;;;;;;10.18;6.05;;;;;;;10.44;63.02;99500.94;4963261;28;20085;-96
2023/02/27 08:17:56;;;;;;;20.45;10.93;;;;;;;10.56;63.31;99487.22;4937716;28;20050;-95
2023/02/27 08:22:57;;;;;;;281.85;159.93;;;;;;;10.85;62.68;99480.28;4976264;28;20306;-96
2023/02/27 08:25:31;;;;;;;15.25;10.43;;;;;;;11.13;61.52;99468.16;4919444;29;20035;-96
2023/02/27 08:28:09;;;;;;;33.63;17.48;;;;;;;11.64;62.07;99509.66;4920863;29;20035;-96
2023/02/27 08:30:41;;;;;;;11.10;4.95;;;;;;;11.79;57.53;99504.25;4919850;29;20035;-93
2023/02/27 08:33:32;;;;;;;11.95;6.50;;;;;;;11.60;58.56;99484.28;4914895;29;20043;-95
2023/02/27 08:38:56;;;;;;;7.85;5.18;;;;;;;11.78;58.46;99497.22;4969857;23;20058;-95
2023/02/27 08:41:37;;;;;;;11.88;5.68;;;;;;;11.85;59.28;99502.31;4934322;28;20019;-95
2023/02/27 08:44:11;;;;;;;9.57;5.00;;;;;;;12.14;57.69;99513.34;4949708;28;20105;-96
2023/02/27 08:47:26;;;;;;;;;;;;;;;;;;;;;
2023/02/27 08:50:07;;;;;;;8.48;4.80;;;;;;;12.26;56.07;99521.94;4977260;28;20103;-95
2023/02/27 08:52:38;;;;;;;11.05;4.57;;;;;;;12.15;56.50;99517.66;4931960;28;20050;-95
2023/02/27 08:57:55;;;;;;;6.97;4.60;;;;;;;12.15;57.27;99531.16;5072793;23;20051;-93
2023/02/27 09:00:21;;;;;;;13.23;5.13;;;;;;;12.03;58.88;99527.94;4910767;29;20042;-94
2023/02/27 09:02:47;;;;;;;7.05;4.05;;;;;;;12.07;55.84;99537.13;4912620;29;20031;-94
2023/02/27 09:05:15;;;;;;;6.43;4.00;;;;;;;11.86;56.87;99552.50;4928865;29;20027;-95
2023/02/27 09:17:19;;;;;;;7.82;4.35;;;;;;;11.69;58.26;99536.63;4981666;28;20106;-93
2023/02/27 09:19:50;;;;;;;8.88;4.53;;;;;;;11.96;58.07;99547.13;4939615;29;20039;-95
2023/02/27 09:22:22;;;;;;;6.82;3.95;;;;;;;11.99;58.64;99548.47;4930128;29;20032;-95
2023/02/27 09:25:09;;;;;;;7.00;4.10;;;;;;;12.13;56.09;99550.31;4915514;29;20422;-94
2023/02/27 09:27:46;;;;;;;4.18;3.10;;;;;;;12.25;55.37;99560.81;4913638;29;20027;-95
2023/02/27 09:30:15;;;;;;;5.53;3.80;;;;;;;12.25;56.53;99568.91;4921016;29;20040;-94
2023/02/27 09:32:51;;;;;;;7.50;3.95;;;;;;;12.40;55.13;99576.16;4892759;29;20035;-91
2023/02/27 09:35:20;;;;;;;6.47;3.58;;;;;;;12.21;54.97;99567.06;4878779;29;20076;-95
2023/02/27 09:37:49;;;;;;;7.53;3.85;;;;;;;12.11;55.56;99589.47;4894341;29;20036;-93
2023/02/27 09:40:39;;;;;;;6.05;3.47;;;;;;;12.04;55.03;99556.56;4876646;29;20040;-95
2023/02/27 09:43:52;;;;;;;9.85;5.10;;;;;;;12.05;55.52;99571.66;4896154;29;20032;-95
2023/02/27 09:46:24;;;;;;;8.05;3.50;;;;;;;12.33;54.98;99564.84;4890738;29;20028;-95
2023/02/27 09:49:04;;;;;;;14.82;6.57;;;;;;;12.36;56.38;99566.19;4891930;29;20043;-96
2023/02/27 10:41:22;;;;;;;9.75;4.55;;;;;;;11.73;56.97;99587.06;4931624;28;20055;-94
2023/02/27 10:44:09;;;;;;;6.05;4.05;;;;;;;11.76;55.78;99611.88;4826940;29;20029;-93
2023/02/27 10:47:30;;;;;;;5.57;4.47;;;;;;;11.69;56.24;99601.38;4824922;29;20034;-95
2023/02/27 11:02:52;;;;;;;;;;;;;;;;;;;;;
2023/02/27 11:05:42;;;;;;;8.75;4.20;;;;;;;11.41;57.09;99598.09;4913519;29;20045;-95
2023/02/27 11:09:08;;;;;;;4.97;4.10;;;;;;;11.46;56.94;99591.91;4908642;29;20044;-94
2023/02/27 11:11:42;;;;;;;6.13;4.53;;;;;;;11.39;57.33;99577.88;4872718;29;20042;-96
2023/02/27 11:14:25;;;;;;;7.57;4.68;;;;;;;11.66;56.02;99605.41;4863858;29;20070;-95
2023/02/27 11:17:07;;;;;;;10.02;5.32;;;;;;;11.68;57.12;99602.44;4879760;29;20038;-95
2023/02/27 11:19:45;;;;;;;14.77;7.60;;;;;;;11.70;56.82;99573.28;4833166;29;20097;-96
2023/02/27 11:22:26;;;;;;;10.68;5.93;;;;;;;12.07;55.12;99593.78;4850267;29;20036;-96
2023/02/27 11:25:28;;;;;;;10.85;4.75;;;;;;;12.07;55.07;99594.59;4881923;29;20033;-96
2023/02/27 11:28:44;;;;;;;7.68;5.13;;;;;;;12.08;55.15;99592.72;4887279;29;20040;-95
2023/02/27 11:34:27;;;;;;;10.05;5.88;;;;;;;12.08;54.71;99576.53;5724287;23;20044;-96
2023/02/27 11:40:15;;;;;;;8.15;4.50;;;;;;;12.20;54.61;99590.53;4912749;29;20043;-96
2023/02/27 11:44:01;;;;;;;7.95;4.38;;;;;;;12.26;53.90;99583.22;4903829;29;20039;-95
2023/02/27 11:50:18;;;;;;;;;;;;;;;;;;;;;
2023/02/27 11:53:30;;;;;;;;;;;;;;;;;;;;;
2023/02/27 11:59:49;;;;;;;11.07;4.65;;;;;;;12.22;54.91;99574.06;4844410;29;20071;-95
2023/02/27 12:06:35;;;;;;;8.10;4.03;;;;;;;12.76;53.15;99608.44;4754464;30;20044;-96
2023/02/27 12:09:19;;;;;;;8.63;4.40;;;;;;;13.08;52.68;99599.09;4787100;30;20043;-96
2023/02/27 12:12:39;;;;;;;10.80;4.22;;;;;;;13.29;52.09;99592.50;4780724;29;20088;-95
2023/02/27 12:15:55;;;;;;;15.35;5.57;;;;;;;13.51;51.70;99594.78;4875598;29;20041;-96
2023/02/27 12:22:43;;;;;;;;;;;;;;;;;;;;;
2023/02/27 12:29:36;;;;;;;;;;;;;;;;;;;;;
2023/02/27 12:39:03;;;;;;;;;;;;;;;;;;;;;
2023/02/27 12:41:57;;;;;;;9.57;3.50;;;;;;;12.89;52.42;99632.16;4978758;28;20070;-96
2023/02/27 13:21:18;;;;;;;;;;;;;;;;;;;;;
2023/02/27 13:24:25;;;;;;;4.70;3.28;;;;;;;13.43;49.12;99625.13;5249416;23;20136;-96
2023/02/27 13:27:41;;;;;;;5.28;3.20;;;;;;;13.23;49.17;99617.13;4913151;29;20047;-96
2023/02/27 13:30:10;;;;;;;5.53;3.80;;;;;;;13.12;50.18;99617.19;4917047;29;20027;-95
2023/02/27 13:33:18;;;;;;;4.28;3.25;;;;;;;12.94;50.12;99604.28;4909799;29;20028;-95
2023/02/27 13:35:55;;;;;;;9.10;3.28;;;;;;;13.10;50.35;99632.88;4907422;29;20117;-93
2023/02/27 13:38:46;;;;;;;5.82;3.45;;;;;;;13.30;49.66;99634.69;4911172;29;20470;-93
2023/02/27 13:41:26;;;;;;;11.73;5.77;;;;;;;13.47;49.43;99626.19;4911831;29;20031;-94
2023/02/27 13:44:25;;;;;;;7.20;3.78;;;;;;;13.69;49.09;99617.63;4928457;29;20063;-95
2023/02/27 13:46:53;;;;;;;5.95;3.28;;;;;;;13.62;49.59;99600.13;4923700;29;20042;-95
2023/02/27 13:52:46;;;;;;;6.78;3.22;;;;;;;13.97;47.80;99627.97;4973602;23;20051;-93
2023/02/27 13:56:17;;;;;;;;;;;;;;;;;;;;;
2023/02/27 13:59:56;;;;;;;;;;;;;;;;;;;;;
2023/02/27 14:03:15;;;;;;;6.40;3.67;;;;;;;13.51;49.66;99635.34;4948229;29;20101;-96
2023/02/27 14:05:51;;;;;;;8.15;4.07;;;;;;;13.55;49.65;99638.31;5073794;23;20604;-95
2023/02/27 14:19:40;;;;;;;6.57;4.28;;;;;;;13.72;50.11;99625.19;5160167;23;20054;-96
2023/02/27 14:23:00;;;;;;;5.75;3.95;;;;;;;13.78;49.83;99623.25;4972568;28;20061;-96
2023/02/27 14:26:14;;;;;;;7.20;3.80;;;;;;;13.59;50.02;99606.88;4973131;28;20061;-95
2023/02/27 14:29:09;;;;;;;5.53;4.57;;;;;;;13.58;49.39;99623.41;4957355;28;20034;-95
2023/02/27 14:31:49;;;;;;;6.85;4.75;;;;;;;13.65;49.26;99632.00;4951576;28;20600;-96
2023/02/27 14:37:46;;;;;;;4.75;3.95;;;;;;;13.34;49.96;99610.56;4989765;28;20038;-95
2023/02/27 14:40:36;;;;;;;9.73;4.03;;;;;;;13.40;50.66;99622.19;4940958;28;20043;-94
2023/02/27 14:43:29;;;;;;;8.77;3.90;;;;;;;13.32;50.13;99620.88;4941909;28;20031;-95
2023/02/27 14:46:12;;;;;;;4.57;3.88;;;;;;;13.36;50.33;99629.22;4969996;28;20030;-95
2023/02/27 14:49:08;;;;;;;9.93;4.72;;;;;;;13.27;50.46;99620.88;4946262;28;20025;-96
2023/02/27 14:52:04;;;;;;;5.50;3.83;;;;;;;13.02;50.53;99614.53;4951095;28;20034;-95
2023/02/27 14:54:30;;;;;;;8.75;5.68;;;;;;;13.17;50.48;99621.75;4940036;28;20093;-94
2023/02/27 14:57:26;;;;;;;16.58;5.47;;;;;;;13.05;50.47;99602.34;4940666;28;20034;-95
2023/02/27 15:01:02;;;;;;;;;;;;;;;;;;;;;
2023/02/27 15:03:55;;;;;;;6.10;3.70;;;;;;;13.04;50.29;99635.88;4890927;29;20100;-95
2023/02/27 15:12:49;;;;;;;12.85;8.93;;;;;;;12.98;51.64;99658.63;4975796;28;20130;-95
2023/02/27 15:22:17;;;;;;;7.63;3.95;;;;;;;12.94;50.48;99677.28;4866227;29;20195;-94
2023/02/27 15:25:03;;;;;;;6.82;3.97;;;;;;;12.90;50.78;99670.81;4875191;29;20037;-96
2023/02/27 15:31:09;;;;;;;5.45;3.88;;;;;;;12.87;51.64;99682.97;5444278;23;20054;-94
2023/02/27 15:42:14;;;;;;;9.52;5.82;;;;;;;12.64;52.07;99670.09;4981238;28;20058;-95
2023/02/27 15:45:16;;;;;;;8.00;5.18;;;;;;;12.64;52.32;99670.91;5227878;23;20055;-95
2023/02/27 16:01:40;;;;;;;6.30;5.43;;;;;;;12.09;52.44;99676.09;5877097;23;20623;-96
2023/02/27 16:04:13;;;;;;;9.77;6.88;;;;;;;12.01;53.10;99694.75;4954468;28;20042;-96
2023/02/27 16:06:46;;;;;;;9.75;6.05;;;;;;;11.91;53.03;99711.72;4936170;28;20027;-96
2023/02/27 16:09:24;;;;;;;10.30;6.38;;;;;;;12.09;53.24;99719.28;4935989;28;20059;-94
2023/02/27 16:43:43;;;;;;;19.10;12.43;;;;;;;11.50;68.93;99820.31;2231221;23;20182;-87
2023/02/27 16:51:33;;;;;;;21.75;12.88;;;;;;;11.29;68.34;99824.81;5149055;23;20089;-96
2023/02/27 16:54:33;;;;;;;19.73;11.57;;;;;;;11.36;68.84;99834.53;4956589;28;20026;-95
2023/02/27 16:57:03;;;;;;;17.10;10.57;;;;;;;11.09;69.17;99813.91;4968787;28;20092;-96
2023/02/27 16:59:32;;;;;;;10.30;7.32;;;;;;;11.00;67.16;99802.81;4955209;28;20496;-95
2023/02/27 17:02:01;;;;;;;11.95;7.30;;;;;;;10.91;67.81;99820.53;4970527;28;20022;-96
2023/02/27 17:04:37;;;;;;;12.88;8.32;;;;;;;10.78;69.23;99846.03;4948366;28;20038;-92
2023/02/27 17:07:18;;;;;;;11.43;8.02;;;;;;;10.66;67.95;99854.28;4982134;28;20495;-92
2023/02/27 17:09:50;;;;;;;14.75;10.15;;;;;;;10.73;69.14;99854.09;4962716;28;20037;-93